Flight Track Log - Related Links

Times and Time Zones

All times are in EDT time to prevent confusion due to time zone crossing. See the TAM8008 flight status page for this flight to view local times or setup timezone preferences in your user account.

Time Position Orientation Groundspeed Altitude Reporting Facility
EDT Latitude Longitude Course Direction KTS MPH feet Rate Location/Type
Wed 05:54:28 PM -23.4330 -46.4840 163° South 9 10  Level FlightAware ADS-B
Wed 05:56:38 PM -23.4340 -46.4830 137° Southeast 10 12 425 Level FlightAware ADS-B
Wed 05:59:00 PM -23.6301 -46.6653 220° Southwest  Level Estimated
Wed 06:00:00 PM -23.7128 -46.7424 220° Southwest  Level Estimated
Wed 06:00:02 PM -23.4340 -46.4810 220° Southwest 53 61  Level FlightAware ADS-B
Wed 06:00:33 PM -23.4290 -46.4640 72° East 170 196 3,447 Level FlightAware ADS-B
Wed 06:00:49 PM -23.4260 -46.4510 76° East 173 199 2,700 6,154 Climbing FlightAware ADS-B
Wed 06:01:12 PM -23.4200 -46.4320 71° East 159 183 4,000 2,280 Climbing FlightAware ADS-B
Wed 06:01:39 PM -23.4230 -46.4170 102° East 167 192 4,600 1,350 Climbing FlightAware ADS-B
Wed 06:01:52 PM -23.4320 -46.4100 144° Southeast 177 204 4,900 1,143 Climbing FlightAware ADS-B
Wed 06:02:21 PM -23.4560 -46.4170 195° South 219 252 5,400 1,067 Climbing FlightAware ADS-B
Wed 06:02:37 PM -23.4700 -46.4320 225° Southwest 239 275 5,700 1,837 Climbing FlightAware ADS-B
Wed 06:03:10 PM -23.4930 -46.4680 235° Southwest 270 311 6,900 2,526 Climbing FlightAware ADS-B
Wed 06:03:34 PM -23.5110 -46.4940 233° Southwest 275 316 8,100 3,375 Climbing FlightAware ADS-B
Wed 06:03:58 PM -23.5300 -46.5210 232° Southwest 270 311 9,600 3,512 Climbing FlightAware ADS-B
Wed 06:04:15 PM -23.5500 -46.5370 216° Southwest 281 323 10,500 2,947 Climbing FlightAware ADS-B
Wed 06:04:55 PM -23.5900 -46.5660 214° Southwest 273 314 12,400 2,795 Climbing FlightAware ADS-B
Wed 06:05:43 PM -23.6420 -46.6210 224° Southwest 285 328 14,600 2,455 Climbing FlightAware ADS-B
Wed 06:06:23 PM -23.6810 -46.6610 223° Southwest 297 342 16,000 1,952 Climbing FlightAware ADS-B
Wed 06:07:06 PM -23.7240 -46.7070 224° Southwest 315 362 17,300 1,814 Climbing FlightAware ADS-B
Wed 06:07:49 PM -23.7710 -46.7570 224° Southwest 328 377 18,600 1,412 Climbing FlightAware ADS-B
Wed 06:08:31 PM -23.8190 -46.8070 224° Southwest 359 413 19,300 878 Climbing FlightAware ADS-B
Wed 06:09:11 PM -23.8690 -46.8610 225° Southwest 392 451 19,800 1,244 Climbing FlightAware ADS-B
Wed 06:09:53 PM -23.9240 -46.9190 224° Southwest 400 460 21,000 1,482 Climbing FlightAware ADS-B
Wed 06:10:36 PM -23.9830 -46.9810 224° Southwest 416 479 21,900 1,714 Climbing FlightAware ADS-B
Wed 06:11:17 PM -24.0400 -47.0420 224° Southwest 409 471 23,400 3,398 Climbing FlightAware ADS-B
Wed 06:11:59 PM -24.0930 -47.0970 223° Southwest 354 407 26,600 2,857 Climbing FlightAware ADS-B
Wed 06:12:41 PM -24.1420 -47.1500 225° Southwest 362 417 27,400 977 Climbing FlightAware ADS-B
Wed 06:13:25 PM -24.1980 -47.2080 223° Southwest 386 444 28,000 643 Climbing FlightAware ADS-B
Wed 06:14:05 PM -24.2530 -47.2600 221° Southwest 406 467 28,300 357 Climbing FlightAware ADS-B
Wed 06:14:49 PM -24.3160 -47.3220 222° Southwest 427 491 28,500 643 Climbing FlightAware ADS-B
Wed 06:15:29 PM -24.3750 -47.3800 222° Southwest 432 497 29,200 1,050 Climbing FlightAware ADS-B
Wed 06:16:09 PM -24.4350 -47.4380 221° Southwest 437 503 29,900 857 Climbing FlightAware ADS-B
Wed 06:16:53 PM -24.5030 -47.5040 221° Southwest 446 513 30,400 825 Climbing FlightAware ADS-B
Wed 06:17:29 PM -24.5590 -47.5600 222° Southwest 448 516 31,000 892 Climbing FlightAware ADS-B
Wed 06:18:07 PM -24.6160 -47.6160 222° Southwest 453 521 31,500 1,186 Climbing FlightAware ADS-B
Wed 06:18:55 PM -24.6930 -47.6910 222° Southwest 448 516 32,700 1,275 Climbing FlightAware ADS-B
Wed 06:19:27 PM -24.7400 -47.7380 222° Southwest 440 506 33,200 1,379 Climbing FlightAware ADS-B
Wed 06:20:22 PM -24.8230 -47.8190 222° Southwest 431 496 34,700 1,097 Climbing FlightAware ADS-B
Wed 06:21:00 PM -24.8700 -47.8670 223° Southwest 438 504 34,900 730 Climbing FlightAware ADS-B
Wed 06:21:36 PM -24.9290 -47.9260 222° Southwest 435 501 35,600 871 Climbing FlightAware ADS-B
Wed 06:22:02 PM -24.9650 -47.9610 221° Southwest 437 503 35,800 253 Climbing FlightAware ADS-B
Wed 06:23:11 PM -25.0770 -48.0730 222° Southwest 441 507 36,000 112 Climbing FlightAware ADS-B
Wed 06:23:49 PM -25.1270 -48.1220 222° Southwest 436 502 36,000  Level FlightAware ADS-B
Wed 06:24:26 PM -25.1830 -48.1780 222° Southwest 437 503 36,000  Level FlightAware ADS-B
Wed 06:25:07 PM -25.2460 -48.2400 222° Southwest 435 501 36,000  Level FlightAware ADS-B
Wed 06:25:50 PM -25.3090 -48.3040 223° Southwest 433 498 36,000  Level FlightAware ADS-B
Wed 06:26:31 PM -25.3720 -48.3660 222° Southwest 433 498 36,000  Level FlightAware ADS-B
Wed 06:27:13 PM -25.4350 -48.4300 223° Southwest 437 503 36,000  Level FlightAware ADS-B
Wed 06:27:56 PM -25.4970 -48.4920 222° Southwest 440 506 36,000  Level FlightAware ADS-B
Wed 06:28:37 PM -25.5630 -48.5550 221° Southwest 448 516 36,000  Level FlightAware ADS-B
Wed 06:29:40 PM -25.6730 -48.6530 219° Southwest 447 514 36,000  Level FlightAware ADS-B
Wed 06:30:27 PM -25.7490 -48.7200 218° Southwest 446 513 36,000  Level FlightAware ADS-B
Wed 06:31:07 PM -25.8140 -48.7770 218° Southwest 448 516 36,000  Level FlightAware ADS-B
Wed 06:31:42 PM -25.8700 -48.8270 219° Southwest 450 518 36,000  Level FlightAware ADS-B
Wed 06:32:22 PM -25.9340 -48.8850 219° Southwest 449 517 36,000  Level FlightAware ADS-B
Wed 06:33:02 PM -25.9980 -48.9430 219° Southwest 449 517 36,000  Level FlightAware ADS-B
Wed 06:33:37 PM -26.0550 -48.9940 219° Southwest 449 517 36,000  Level FlightAware ADS-B
Wed 06:34:22 PM -26.1280 -49.0590 219° Southwest 449 517 36,000  Level FlightAware ADS-B
Wed 06:35:07 PM -26.2000 -49.1240 219° Southwest 449 517 36,000  Level FlightAware ADS-B
Wed 06:35:42 PM -26.2560 -49.1740 219° Southwest 449 517 36,000  Level FlightAware ADS-B
Wed 06:36:27 PM -26.3260 -49.2370 219° Southwest 449 517 36,000  Level FlightAware ADS-B
Wed 06:37:07 PM -26.3870 -49.2920 219° Southwest 449 517 36,000  Level FlightAware ADS-B
Wed 06:37:55 PM -26.4710 -49.3680 219° Southwest 443 510 36,000  Level FlightAware ADS-B
Wed 06:38:27 PM -26.5210 -49.4130 219° Southwest 444 511 36,000  Level FlightAware ADS-B
Wed 06:39:11 PM -26.5930 -49.4790 219° Southwest 446 513 36,000  Level FlightAware ADS-B
Wed 06:39:51 PM -26.6570 -49.5370 219° Southwest 449 517 36,000  Level FlightAware ADS-B
Wed 06:40:35 PM -26.7270 -49.6010 219° Southwest 450 518 36,000  Level FlightAware ADS-B
Wed 06:41:14 PM -26.7880 -49.6570 219° Southwest 450 518 36,000  Level FlightAware ADS-B
Wed 06:41:54 PM -26.8520 -49.7140 218° Southwest 449 517 36,000  Level FlightAware ADS-B
Wed 06:42:39 PM -26.9250 -49.7820 220° Southwest 449 517 36,000  Level FlightAware ADS-B
Wed 06:43:19 PM -26.9880 -49.8390 219° Southwest 451 519 36,000  Level FlightAware ADS-B
Wed 06:43:54 PM -27.0480 -49.8940 219° Southwest 450 518 36,000  Level FlightAware ADS-B
Wed 06:44:49 PM -27.1350 -49.9740 219° Southwest 451 519 36,000  Level FlightAware ADS-B
Wed 06:45:24 PM -27.1940 -50.0280 219° Southwest 449 517 36,000  Level FlightAware ADS-B
Wed 06:46:07 PM -27.2560 -50.0850 219° Southwest 449 517 36,000  Level FlightAware ADS-B
Wed 06:47:05 PM -27.3440 -50.1670 220° Southwest 451 519 36,000  Level FlightAware ADS-B
Wed 06:47:42 PM -27.4100 -50.2280 219° Southwest 453 521 36,000  Level FlightAware ADS-B
Wed 06:48:25 PM -27.4750 -50.2870 219° Southwest 452 520 36,000  Level FlightAware ADS-B
Wed 06:49:12 PM -27.5450 -50.3530 220° Southwest 453 521 36,000  Level FlightAware ADS-B
Wed 06:49:52 PM -27.6100 -50.4130 219° Southwest 450 518 36,000  Level FlightAware ADS-B
Wed 06:50:27 PM -27.6670 -50.4660 219° Southwest 449 517 36,000  Level FlightAware ADS-B
Wed 06:51:12 PM -27.7380 -50.5330 220° Southwest 450 518 36,000  Level FlightAware ADS-B
Wed 06:51:52 PM -27.8040 -50.5940 219° Southwest 450 518 36,000  Level FlightAware ADS-B
Wed 06:52:27 PM -27.8600 -50.6460 219° Southwest 452 520 36,000  Level FlightAware ADS-B
Wed 06:53:07 PM -27.9220 -50.7040 220° Southwest 454 522 36,000  Level FlightAware ADS-B
Wed 06:53:52 PM -27.9960 -50.7730 219° Southwest 456 525 36,000  Level FlightAware ADS-B
Wed 06:54:27 PM -28.0470 -50.8210 220° Southwest 457 526 36,000 80 Level FlightAware ADS-B
Wed 06:55:07 PM -28.1180 -50.8880 220° Southwest 454 522 36,100  Climbing FlightAware ADS-B
Wed 06:55:47 PM -28.1780 -50.9450 220° Southwest 451 519 36,000 -71 Descending FlightAware ADS-B
Wed 06:56:32 PM -28.2520 -51.0150 220° Southwest 449 517 36,000  Level FlightAware ADS-B
Wed 06:57:12 PM -28.3180 -51.0770 220° Southwest 448 516 36,000  Level FlightAware ADS-B
Wed 06:57:57 PM -28.3910 -51.1460 220° Southwest 450 518 36,000  Level FlightAware ADS-B
Wed 06:58:37 PM -28.4520 -51.2040 220° Southwest 450 518 36,000  Level FlightAware ADS-B
Wed 06:59:17 PM -28.5160 -51.2650 220° Southwest 449 517 36,000  Level FlightAware ADS-B
Wed 06:59:57 PM -28.5780 -51.3250 220° Southwest 448 516 36,000  Level FlightAware ADS-B
Wed 07:00:37 PM -28.6440 -51.3870 219° Southwest 449 517 36,000  Level FlightAware ADS-B
Wed 07:01:17 PM -28.7060 -51.4470 220° Southwest 454 522 36,000  Level FlightAware ADS-B
Wed 07:02:02 PM -28.7780 -51.5150 220° Southwest 459 528 36,000  Level FlightAware ADS-B
Wed 07:02:42 PM -28.8450 -51.5800 220° Southwest 462 532 36,000  Level FlightAware ADS-B
Wed 07:03:22 PM -28.9080 -51.6400 220° Southwest 463 533 36,000  Level FlightAware ADS-B
Wed 07:04:07 PM -28.9850 -51.7140 220° Southwest 464 534 36,000  Level FlightAware ADS-B
Wed 07:04:42 PM -29.0400 -51.7670 220° Southwest 464 534 36,000  Level FlightAware ADS-B
Wed 07:05:23 PM -29.1070 -51.8320 220° Southwest 463 533 36,000  Level FlightAware ADS-B
Wed 07:06:02 PM -29.1720 -51.8950 220° Southwest 460 529 36,000  Level FlightAware ADS-B
Wed 07:06:42 PM -29.2370 -51.9580 220° Southwest 455 524 36,000  Level FlightAware ADS-B
Wed 07:07:23 PM -29.3010 -52.0200 220° Southwest 453 521 36,000  Level FlightAware ADS-B
Wed 07:08:02 PM -29.3630 -52.0800 220° Southwest 451 519 36,000  Level FlightAware ADS-B
Wed 07:08:37 PM -29.4200 -52.1360 221° Southwest 450 518 36,000  Level FlightAware ADS-B
Wed 07:09:23 PM -29.4900 -52.2040 220° Southwest 449 517 36,000  Level FlightAware ADS-B
Wed 07:10:02 PM -29.5560 -52.2690 221° Southwest 447 514 36,000  Level FlightAware ADS-B
Wed 07:10:42 PM -29.6170 -52.3280 220° Southwest 444 511 36,000  Level FlightAware ADS-B
Wed 07:11:27 PM -29.6880 -52.3970 220° Southwest 444 511 36,000  Level FlightAware ADS-B
Wed 07:12:07 PM -29.7530 -52.4610 221° Southwest 445 512 36,000  Level FlightAware ADS-B
Wed 07:12:51 PM -29.8120 -52.5200 221° Southwest 445 512 36,000  Level FlightAware ADS-B
Wed 07:13:27 PM -29.8760 -52.5830 220° Southwest 445 512 36,000  Level FlightAware ADS-B
Wed 07:14:22 PM -29.9610 -52.6670 221° Southwest 447 514 36,000  Level FlightAware ADS-B
Wed 07:15:02 PM -30.0190 -52.7250 221° Southwest 448 516 36,000  Level FlightAware ADS-B
Wed 07:15:42 PM -30.0810 -52.7860 220° Southwest 450 518 36,000  Level FlightAware ADS-B
Wed 07:16:20 PM -30.1620 -52.8660 220° Southwest 454 522 36,000  Level FlightAware ADS-B
Wed 07:17:00 PM -30.2270 -52.9310 221° Southwest 455 524 36,000  Level FlightAware ADS-B
Wed 07:17:45 PM -30.2990 -53.0030 221° Southwest 456 525 36,000  Level FlightAware ADS-B
Wed 07:18:25 PM -30.3590 -53.0630 221° Southwest 456 525 36,000  Level FlightAware ADS-B
Wed 07:19:05 PM -30.4270 -53.1310 221° Southwest 455 524 36,000  Level FlightAware ADS-B
Wed 07:19:50 PM -30.4980 -53.2020 221° Southwest 450 518 36,000  Level FlightAware ADS-B
Wed 07:20:51 PM -30.5720 -53.2760 221° Southwest 444 511 36,000  Level FlightAware ADS-B
Wed 07:21:32 PM -30.6570 -53.3620 221° Southwest 440 506 36,000  Level FlightAware ADS-B
Wed 07:22:15 PM -30.7220 -53.4280 221° Southwest 437 503 36,000  Level FlightAware ADS-B
Wed 07:22:35 PM -30.7540 -53.4600 221° Southwest 436 502 36,000  Level FlightAware ADS-B
Wed 07:23:25 PM -30.8260 -53.5330 221° Southwest 435 501 36,000  Level FlightAware ADS-B
Wed 07:24:05 PM -30.8910 -53.5980 221° Southwest 435 501 36,000  Level FlightAware ADS-B
Wed 07:24:50 PM -30.9590 -53.6680 221° Southwest 433 498 36,000  Level FlightAware ADS-B
Wed 07:25:25 PM -31.0090 -53.7190 221° Southwest 433 498 36,000  Level FlightAware ADS-B
Wed 07:26:10 PM -31.0800 -53.7900 221° Southwest 430 495 36,000  Level FlightAware ADS-B
Wed 07:26:50 PM -31.1400 -53.8520 221° Southwest 431 496 36,000  Level FlightAware ADS-B
Wed 07:27:30 PM -31.2000 -53.9130 221° Southwest 430 495 36,000  Level FlightAware ADS-B
Wed 07:28:08 PM -31.2430 -53.9570 221° Southwest 430 495 36,000  Level FlightAware ADS-B
Wed 07:29:04 PM -31.3290 -54.0450 221° Southwest 430 495 36,000  Level FlightAware ADS-B
Wed 07:29:42 PM -31.3920 -54.1110 222° Southwest 432 497 36,000  Level FlightAware ADS-B
Wed 07:30:22 PM -31.4510 -54.1800 225° Southwest 434 499 36,000  Level FlightAware ADS-B
Wed 07:31:07 PM -31.5160 -54.2600 226° Southwest 435 501 36,000  Level FlightAware ADS-B
Wed 07:31:42 PM -31.5640 -54.3190 226° Southwest 435 501 36,000  Level FlightAware ADS-B
Wed 07:32:37 PM -31.6400 -54.4120 226° Southwest 437 503 36,000  Level FlightAware ADS-B
Wed 07:33:12 PM -31.6790 -54.4590 226° Southwest 436 502 36,000  Level FlightAware ADS-B
Wed 07:34:02 PM -31.7380 -54.5320 226° Southwest 436 502 36,000  Level FlightAware ADS-B
Wed 07:34:38 PM -31.7810 -54.5840 226° Southwest 436 502 36,000  Level FlightAware ADS-B
Wed 07:35:27 PM -31.8390 -54.6550 226° Southwest 436 502 36,000  Level FlightAware ADS-B
Wed 07:36:04 PM -31.8830 -54.7090 226° Southwest 436 502 36,000  Level FlightAware ADS-B
Wed 07:36:40 PM -31.9260 -54.7610 226° Southwest 436 502 36,000  Level FlightAware ADS-B
Wed 07:37:16 PM -31.9690 -54.8130 226° Southwest 436 502 36,000  Level FlightAware ADS-B
Wed 07:38:03 PM -32.0250 -54.8820 226° Southwest 436 502 36,000  Level FlightAware ADS-B
Wed 07:38:40 PM -32.0690 -54.9350 226° Southwest 436 502 36,000  Level FlightAware ADS-B
Wed 07:39:28 PM -32.1260 -55.0050 226° Southwest 436 502 36,000  Level FlightAware ADS-B
Wed 07:40:28 PM -32.1980 -55.0930 226° Southwest 436 502 36,000  Level FlightAware ADS-B
Wed 07:41:14 PM -32.3410 -55.2840 228° Southwest 425 489 36,000  Level FlightAware ADS-B
Wed 07:41:49 PM -32.3810 -55.3330 226° Southwest 425 489 36,000  Level FlightAware ADS-B
Wed 07:42:36 PM -32.4520 -55.4260 228° Southwest 418 481 36,000  Level FlightAware ADS-B
Wed 07:43:14 PM -32.5050 -55.4920 226° Southwest 418 481 36,000  Level FlightAware ADS-B
Wed 07:43:55 PM -32.5550 -55.5560 227° Southwest 419 482 36,000  Level FlightAware ADS-B
Wed 07:44:30 PM -32.6090 -55.6230 226° Southwest 419 482 36,000  Level FlightAware ADS-B
Wed 07:45:14 PM -32.6520 -55.6790 228° Southwest 418 481 36,000  Level FlightAware ADS-B
Wed 07:45:51 PM -32.6940 -55.7320 227° Southwest 418 481 36,000  Level FlightAware ADS-B
Wed 07:46:38 PM -32.7740 -55.8350 227° Southwest 416 479 36,000  Level FlightAware ADS-B
Wed 07:47:16 PM -32.8230 -55.8970 227° Southwest 416 479 36,000  Level FlightAware ADS-B
Wed 07:48:02 PM -32.8750 -55.9640 227° Southwest 417 480 36,000  Level FlightAware ADS-B
Wed 07:48:41 PM -32.9330 -56.0380 227° Southwest 416 479 36,000 72 Level FlightAware ADS-B
Wed 07:49:25 PM -32.9870 -56.1090 228° Southwest 411 473 36,100  Climbing FlightAware ADS-B
Wed 07:50:06 PM -33.0390 -56.1750 227° Southwest 406 467 36,000 -82 Descending FlightAware ADS-B
Wed 07:50:38 PM -33.0840 -56.2330 227° Southwest 404 465 36,000 -81 Level FlightAware ADS-B
Wed 07:51:20 PM -33.1390 -56.3030 227° Southwest 411 473 35,900  Descending FlightAware ADS-B
Wed 07:52:00 PM -33.1900 -56.3700 228° Southwest 417 480 36,000 72 Climbing FlightAware ADS-B
Wed 07:52:43 PM -33.2410 -56.4550 234° Southwest 435 501 36,000  Level FlightAware ADS-B
Wed 07:53:29 PM -33.2850 -56.5460 240° Southwest 431 496 36,000  Level FlightAware ADS-B
Wed 07:54:26 PM -33.3450 -56.6690 240° Southwest 431 496 36,000  Level FlightAware ADS-B
Wed 07:55:06 PM -33.3840 -56.7510 240° Southwest 430 495 36,000  Level FlightAware ADS-B
Wed 07:55:50 PM -33.4280 -56.8410 240° Southwest 429 494 36,000 -429 Level FlightAware ADS-B
Wed 07:56:30 PM -33.4670 -56.9230 240° Southwest 424 488 35,400 -1,429 Descending FlightAware ADS-B
Wed 07:57:14 PM -33.5100 -57.0120 240° Southwest 418 481 34,000 -1,929 Descending FlightAware ADS-B
Wed 07:57:54 PM -33.5490 -57.0930 240° Southwest 418 481 32,700 -2,071 Descending FlightAware ADS-B
Wed 07:58:38 PM -33.5900 -57.1810 241° Southwest 425 489 31,100 -2,143 Descending FlightAware ADS-B
Wed 07:59:18 PM -33.6300 -57.2650 240° Southwest 437 503 29,700 -2,163 Descending FlightAware ADS-B
Wed 08:00:04 PM -33.6760 -57.3620 240° Southwest 443 510 28,000 -2,302 Descending FlightAware ADS-B
Wed 08:00:44 PM -33.7170 -57.4480 240° Southwest 438 504 26,400 -2,357 Descending FlightAware ADS-B
Wed 08:01:28 PM -33.7600 -57.5400 241° Southwest 435 501 24,700 -2,286 Descending FlightAware ADS-B
Wed 08:02:08 PM -33.7980 -57.6200 240° Southwest 428 493 23,200 -2,289 Descending FlightAware ADS-B
Wed 08:02:44 PM -33.8340 -57.6960 240° Southwest 417 480 21,800 -2,240 Descending FlightAware ADS-B
Wed 08:03:23 PM -33.8700 -57.7740 241° Southwest 404 465 20,400 -2,250 Descending FlightAware ADS-B
Wed 08:04:04 PM -33.9080 -57.8550 241° Southwest 403 464 18,800 -2,260 Descending FlightAware ADS-B
Wed 08:04:40 PM -33.9410 -57.9250 240° Southwest 396 456 17,500 -2,175 Descending FlightAware ADS-B
Wed 08:05:24 PM -33.9800 -58.0080 240° Southwest 384 442 15,900 -2,143 Descending FlightAware ADS-B
Wed 08:06:04 PM -34.0140 -58.0820 241° Southwest 381 438 14,500 -2,214 Descending FlightAware ADS-B
Wed 08:06:48 PM -34.0520 -58.1640 241° Southwest 379 436 12,800 -2,071 Descending FlightAware ADS-B
Wed 08:07:28 PM -34.0850 -58.2360 241° Southwest 363 418 11,600 -1,000 Descending FlightAware ADS-B
Wed 08:08:12 PM -34.1180 -58.3090 241° Southwest 314 361 11,400 -628 Descending FlightAware ADS-B
Wed 08:08:54 PM -34.1460 -58.3700 241° Southwest 290 334 10,700 -1,308 Descending FlightAware ADS-B
Wed 08:09:30 PM -34.1700 -58.4210 240° Southwest 289 333 9,700 -1,625 Descending FlightAware ADS-B
Wed 08:09:42 PM -34.1770 -58.4380 244° Southwest 286 329 9,400 -1,571 Descending FlightAware ADS-B
Wed 08:10:12 PM -34.1960 -58.4800 241° Southwest 284 327 8,600 -1,714 Descending FlightAware ADS-B
Wed 08:10:24 PM -34.2040 -58.4970 240° Southwest 284 327 8,200 -1,571 Descending FlightAware ADS-B
Wed 08:10:54 PM -34.2230 -58.5380 241° Southwest 278 320 7,500 -1,500 Descending FlightAware ADS-B
Wed 08:11:04 PM -34.2290 -58.5510 241° Southwest 276 318 7,200 -1,765 Descending FlightAware ADS-B
Wed 08:11:28 PM -34.2440 -58.5830 240° Southwest 277 319 6,500 -1,538 Descending FlightAware ADS-B
Wed 08:11:43 PM -34.2520 -58.6020 243° Southwest 272 313 6,200 -837 Descending FlightAware ADS-B
Wed 08:12:11 PM -34.2710 -58.6380 237° Southwest 255 293 5,900 -615 Descending FlightAware ADS-B
Wed 08:12:22 PM -34.2820 -58.6460 211° Southwest 249 287 5,800 -783 Descending FlightAware ADS-B
Wed 08:12:34 PM -34.2950 -58.6490 191° South 245 282 5,600 -682 Descending FlightAware ADS-B
Wed 08:13:06 PM -34.3290 -58.6360 162° South 228 262 5,300 -700 Descending FlightAware ADS-B
Wed 08:13:34 PM -34.3560 -58.6240 160° South 219 252 4,900 -964 Descending FlightAware ADS-B
Wed 08:14:02 PM -34.3820 -58.6130 161° South 219 252 4,400 -1,050 Descending FlightAware ADS-B
Wed 08:14:14 PM -34.3940 -58.6080 161° South 218 251 4,200 -1,024 Descending FlightAware ADS-B
Wed 08:14:43 PM -34.4210 -58.5970 161° South 216 249 3,700 -1,179 Descending FlightAware ADS-B
Wed 08:15:10 PM -34.4480 -58.5850 160° South 220 253 3,100 -1,116 Descending FlightAware ADS-B
Wed 08:15:26 PM -34.4610 -58.5750 148° Southeast 220 253 2,900 -545 Descending FlightAware ADS-B
Wed 08:15:54 PM -34.4810 -58.5530 138° Southeast 195 224 2,700 -1,222 Descending FlightAware ADS-B
Wed 08:16:20 PM -34.4950 -58.5300 126° Southeast 188 216 1,800 -1,560 Descending FlightAware ADS-B
Wed 08:16:44 PM -34.5060 -58.5110 125° Southeast 174 200 1,400 -973 Descending FlightAware ADS-B
Wed 08:16:57 PM -34.5120 -58.5010 126° Southeast 160 184 1,200 -878 Descending FlightAware ADS-B
Wed 08:17:25 PM -34.5220 -58.4820 123° Southeast 140 161 800 -764 Descending FlightAware ADS-B
Wed 08:17:52 PM -34.5320 -58.4640 124° Southeast 135 155 500 -706 Descending FlightAware ADS-B
Wed 08:18:16 PM -34.5410 -58.4490 126° Southeast 133 153 200 -750 Descending FlightAware ADS-B
Wed 08:20:00 PM -34.5592 -58.4156 123° Southeast  Level Estimated
Wed 08:21:00 PM -34.5592 -58.4156 147° Southeast  Level Estimated
Wed 08:22:00 PM -34.5592 -58.4156 33° Northeast  Level Estimated
Wed 08:23:00 PM -34.5592 -58.4156 147° Southeast  Level Estimated
Wed 08:24:00 PM -34.5592 -58.4156 33° Northeast  Level Estimated
Wed 08:25:00 PM -34.5592 -58.4156 147° Southeast  Level Estimated
Wed 08:26:00 PM -34.5592 -58.4156 33° Northeast  Level Estimated
Wed 08:27:00 PM -34.5592 -58.4156 147° Southeast  Level Estimated
Wed 08:28:00 PM -34.5592 -58.4156 33° Northeast  Level Estimated
Wed 08:29:00 PM -34.5592 -58.4156 147° Southeast  Level Estimated
Wed 08:30:00 PM -34.5592 -58.4156 33° Northeast  Level Estimated
Wed 08:31:00 PM -34.5592 -58.4156 147° Southeast  Level Estimated
Wed 08:32:00 PM -34.5592 -58.4156 33° Northeast  Level Estimated
Wed 08:33:00 PM -34.5592 -58.4156 147° Southeast  Level Estimated
Wed 08:34:00 PM -34.5592 -58.4156 33° Northeast  Level Estimated
Wed 08:35:00 PM -34.5592 -58.4156 147° Southeast  Level Estimated
Wed 08:36:00 PM -34.5592 -58.4156 33° Northeast  Level Estimated
Wed 08:37:00 PM -34.5592 -58.4156 147° Southeast  Level Estimated
Wed 08:38:00 PM -34.5592 -58.4156 33° Northeast  Level Estimated
Wed 08:39:00 PM -34.5592 -58.4156 147° Southeast  Level Estimated
Wed 08:40:00 PM -34.5592 -58.4156 33° Northeast  Level Estimated
Wed 08:41:00 PM -34.5592 -58.4156 147° Southeast  Level Estimated
Wed 08:42:00 PM -34.5592 -58.4156 33° Northeast  Level Estimated
Wed 08:43:00 PM -34.5592 -58.4156 147° Southeast  Level Estimated
Wed 08:44:00 PM -34.5592 -58.4156 33° Northeast  Level Estimated
Wed 08:45:00 PM -34.5592 -58.4156 147° Southeast  Level Estimated
Wed 08:46:00 PM -34.5592 -58.4156 33° Northeast  Level Estimated

Login

Don't have an account? Register now (free) for customized features, flight alerts, and more!